Time;durP1;ratioP1;P1;durP2;ratioP2;P2;SDS_P1;SDS_P2;PMS_P1;PMS_P2;Temp;Humidity;BMP_temperature;BMP_pressure;BME280_temperature;BME280_humidity;BME280_pressure;Samples;Min_cycle;Max_cycle;Signal;HPM_P1;HPM_P2
2021/09/01 00:01:16;;;;;;;15.77;12.60;;;;;;;;;;5054826;28;20231;-77
2021/09/01 00:03:42;;;;;;;16.07;13.00;;;;;;;;;;5054860;28;20610;-78
2021/09/01 00:06:09;;;;;;;17.30;13.33;;;;;;;;;;5054953;28;20215;-79
2021/09/01 00:08:36;;;;;;;15.40;13.57;;;;;;;;;;5036705;28;20204;-78
2021/09/01 00:11:05;;;;;;;17.17;13.30;;;;;;;;;;5054659;28;20223;-78
2021/09/01 00:13:32;;;;;;;14.03;12.47;;;;;;;;;;5054921;28;20250;-78
2021/09/01 00:15:59;;;;;;;15.83;13.50;;;;;;;;;;5036527;28;20219;-79
2021/09/01 00:18:25;;;;;;;15.07;13.43;;;;;;;;;;5054702;28;20230;-78
2021/09/01 00:20:52;;;;;;;14.17;12.67;;;;;;;;;;5053846;28;20273;-77
2021/09/01 00:23:19;;;;;;;21.23;13.93;;;;;;;;;;5054882;28;20282;-77
2021/09/01 00:25:45;;;;;;;17.23;13.07;;;;;;;;;;5054585;28;20242;-78
2021/09/01 00:28:13;;;;;;;15.60;13.10;;;;;;;;;;5054166;28;20742;-77
2021/09/01 00:30:40;;;;;;;19.33;13.90;;;;;;;;;;5054846;28;20203;-78
2021/09/01 00:33:06;;;;;;;19.60;12.80;;;;;;;;;;5036391;28;20729;-77
2021/09/01 00:35:33;;;;;;;16.43;13.27;;;;;;;;;;5036555;28;20284;-77
2021/09/01 00:38:00;;;;;;;14.07;12.57;;;;;;;;;;5036143;28;20207;-77
2021/09/01 00:40:28;;;;;;;14.60;13.10;;;;;;;;;;5036550;28;20270;-78
2021/09/01 00:42:55;;;;;;;14.77;13.27;;;;;;;;;;5036338;28;20203;-79
2021/09/01 00:45:23;;;;;;;15.00;12.50;;;;;;;;;;5035731;28;20203;-79
2021/09/01 00:47:50;;;;;;;22.70;12.00;;;;;;;;;;5053998;28;20243;-78
2021/09/01 00:50:16;;;;;;;13.73;11.87;;;;;;;;;;5053617;28;20255;-78
2021/09/01 00:52:43;;;;;;;13.70;12.13;;;;;;;;;;5053947;28;20215;-78
2021/09/01 00:55:11;;;;;;;14.70;12.90;;;;;;;;;;5053467;28;20207;-78
2021/09/01 00:57:40;;;;;;;14.97;13.10;;;;;;;;;;5053979;28;20280;-78
2021/09/01 01:00:07;;;;;;;14.43;12.63;;;;;;;;;;5053584;28;20644;-78
2021/09/01 01:02:35;;;;;;;17.73;12.83;;;;;;;;;;5053997;28;20246;-78
2021/09/01 01:05:02;;;;;;;13.13;11.73;;;;;;;;;;5053422;28;20239;-77
2021/09/01 01:07:29;;;;;;;13.90;12.43;;;;;;;;;;5035377;28;20683;-78
2021/09/01 01:09:55;;;;;;;16.03;13.00;;;;;;;;;;5053689;28;20686;-78
2021/09/01 01:12:22;;;;;;;16.57;12.50;;;;;;;;;;5054038;28;20184;-77
2021/09/01 01:14:49;;;;;;;14.97;12.30;;;;;;;;;;5053743;28;20239;-78
2021/09/01 01:17:17;;;;;;;12.93;11.60;;;;;;;;;;5052658;28;20250;-78
2021/09/01 01:19:46;;;;;;;14.93;12.20;;;;;;;;;;5035173;28;20699;-78
2021/09/01 01:22:13;;;;;;;16.03;12.83;;;;;;;;;;5053715;28;20246;-78
2021/09/01 01:24:46;;;;;;;14.13;12.17;;;;;;;;;;5053665;28;20214;-78
2021/09/01 01:27:19;;;;;;;18.03;13.20;;;;;;;;;;5053293;28;20219;-78
2021/09/01 01:29:45;;;;;;;15.77;12.93;;;;;;;;;;5053130;28;20223;-78
2021/09/01 01:32:12;;;;;;;13.40;11.97;;;;;;;;;;5053046;28;20692;-78
2021/09/01 01:34:38;;;;;;;16.53;12.00;;;;;;;;;;5052734;28;20175;-78
2021/09/01 01:37:07;;;;;;;13.50;11.90;;;;;;;;;;5053029;28;20239;-78
2021/09/01 01:39:34;;;;;;;14.43;12.53;;;;;;;;;;5052830;28;20283;-78
2021/09/01 01:42:00;;;;;;;14.30;12.00;;;;;;;;;;5052865;28;20230;-77
2021/09/01 01:44:28;;;;;;;16.40;12.77;;;;;;;;;;5035462;28;20195;-78
2021/09/01 01:46:55;;;;;;;17.43;11.97;;;;;;;;;;5053220;28;20180;-78
2021/09/01 01:49:21;;;;;;;13.80;12.40;;;;;;;;;;5052757;28;20246;-79
2021/09/01 01:51:49;;;;;;;18.67;12.60;;;;;;;;;;5052332;28;20655;-79
2021/09/01 01:54:15;;;;;;;15.13;12.57;;;;;;;;;;5053003;28;20218;-78
2021/09/01 01:56:42;;;;;;;15.20;12.70;;;;;;;;;;5052487;28;20250;-77
2021/09/01 01:59:08;;;;;;;13.97;12.57;;;;;;;;;;5034990;28;20199;-78
2021/09/01 02:01:36;;;;;;;13.83;11.93;;;;;;;;;;5052670;28;20710;-78
2021/09/01 02:04:04;;;;;;;16.67;12.47;;;;;;;;;;5052990;28;20215;-77
2021/09/01 02:06:30;;;;;;;14.00;11.60;;;;;;;;;;5052394;28;20238;-78
2021/09/01 02:08:57;;;;;;;15.60;12.70;;;;;;;;;;5052083;28;20246;-78
2021/09/01 02:11:24;;;;;;;13.93;11.60;;;;;;;;;;5052591;28;20235;-77
2021/09/01 02:13:50;;;;;;;15.43;11.67;;;;;;;;;;5034302;28;20253;-77
2021/09/01 02:16:17;;;;;;;12.77;11.53;;;;;;;;;;5052277;28;20242;-78
2021/09/01 02:18:45;;;;;;;13.53;12.17;;;;;;;;;;5052136;28;20260;-77
2021/09/01 02:21:12;;;;;;;13.50;12.07;;;;;;;;;;5052224;28;20259;-77
2021/09/01 02:23:38;;;;;;;15.83;12.37;;;;;;;;;;5051987;28;20211;-79
2021/09/01 02:26:07;;;;;;;13.80;11.43;;;;;;;;;;5034482;28;20226;-77
2021/09/01 02:28:34;;;;;;;12.90;11.60;;;;;;;;;;5051881;28;20258;-78
2021/09/01 02:31:01;;;;;;;13.40;12.10;;;;;;;;;;5052020;28;20234;-79
2021/09/01 02:33:28;;;;;;;16.10;12.03;;;;;;;;;;5051831;28;20667;-77
2021/09/01 02:35:55;;;;;;;15.63;13.77;;;;;;;;;;5051844;28;20211;-77
2021/09/01 02:38:22;;;;;;;14.23;12.20;;;;;;;;;;5051577;28;20249;-77
2021/09/01 02:40:49;;;;;;;16.90;12.27;;;;;;;;;;5051981;28;20330;-78
2021/09/01 02:43:15;;;;;;;12.43;11.17;;;;;;;;;;5051795;28;20608;-77
2021/09/01 02:45:42;;;;;;;14.70;12.67;;;;;;;;;;5033408;28;20203;-78
2021/09/01 02:48:09;;;;;;;16.77;12.10;;;;;;;;;;5051694;28;20235;-78
2021/09/01 02:50:35;;;;;;;13.97;12.57;;;;;;;;;;5051993;28;20255;-78
2021/09/01 02:53:03;;;;;;;14.47;12.60;;;;;;;;;;5051448;28;20246;-77
2021/09/01 02:55:30;;;;;;;13.87;12.37;;;;;;;;;;5051490;28;20276;-77
2021/09/01 02:57:57;;;;;;;12.83;11.53;;;;;;;;;;5050991;28;20249;-77
2021/09/01 03:00:23;;;;;;;17.00;11.90;;;;;;;;;;5051487;28;20729;-77
2021/09/01 03:02:50;;;;;;;15.97;11.10;;;;;;;;;;5051401;28;20675;-77
2021/09/01 03:05:17;;;;;;;11.50;10.40;;;;;;;;;;5033462;28;20229;-77
2021/09/01 03:07:43;;;;;;;15.07;10.90;;;;;;;;;;5051963;28;20247;-77
2021/09/01 03:10:11;;;;;;;13.03;11.50;;;;;;;;;;5051867;28;20207;-77
2021/09/01 03:12:38;;;;;;;14.43;11.33;;;;;;;;;;5051416;28;20556;-78
2021/09/01 03:15:05;;;;;;;12.73;10.90;;;;;;;;;;5051441;28;20242;-77
2021/09/01 03:17:32;;;;;;;12.20;10.90;;;;;;;;;;5051598;28;20246;-79
2021/09/01 03:19:58;;;;;;;13.00;10.57;;;;;;;;;;5051194;28;20255;-77
2021/09/01 03:22:26;;;;;;;13.37;10.97;;;;;;;;;;5051757;28;20202;-79
2021/09/01 03:24:53;;;;;;;11.77;10.67;;;;;;;;;;5051184;28;20607;-78
2021/09/01 03:27:21;;;;;;;12.20;10.27;;;;;;;;;;5033297;28;20675;-77
2021/09/01 03:29:48;;;;;;;11.30;9.87;;;;;;;;;;5051521;28;20242;-77
2021/09/01 03:32:15;;;;;;;11.10;10.07;;;;;;;;;;5051077;28;20239;-78
2021/09/01 03:34:41;;;;;;;11.60;10.37;;;;;;;;;;5051035;28;20593;-77
2021/09/01 03:37:08;;;;;;;11.43;10.20;;;;;;;;;;5050798;28;20246;-78
2021/09/01 03:39:35;;;;;;;12.00;10.70;;;;;;;;;;5051327;28;20220;-77
2021/09/01 03:42:01;;;;;;;10.90;9.80;;;;;;;;;;5050576;28;20274;-77
2021/09/01 03:44:29;;;;;;;11.77;10.50;;;;;;;;;;5050952;28;20218;-77
2021/09/01 03:46:58;;;;;;;12.10;10.23;;;;;;;;;;5032997;28;20214;-78
2021/09/01 03:49:25;;;;;;;11.40;10.30;;;;;;;;;;5050730;28;20250;-78
2021/09/01 03:51:51;;;;;;;12.80;11.50;;;;;;;;;;5032410;28;20219;-78
2021/09/01 03:54:18;;;;;;;13.37;11.00;;;;;;;;;;5033633;28;20199;-78
2021/09/01 03:56:45;;;;;;;12.13;10.50;;;;;;;;;;5052389;28;20246;-79
2021/09/01 03:59:11;;;;;;;16.20;10.97;;;;;;;;;;5055008;28;20623;-81
2021/09/01 04:01:39;;;;;;;12.30;11.00;;;;;;;;;;5054955;28;20228;-79
2021/09/01 04:04:07;;;;;;;12.40;10.40;;;;;;;;;;5055019;28;20195;-79
2021/09/01 04:06:33;;;;;;;11.33;10.20;;;;;;;;;;5055075;28;20585;-78
2021/09/01 04:09:01;;;;;;;13.07;10.57;;;;;;;;;;5037054;28;20249;-78
2021/09/01 04:11:28;;;;;;;15.57;10.93;;;;;;;;;;5054756;28;20246;-79
2021/09/01 04:13:55;;;;;;;11.93;10.73;;;;;;;;;;5054655;28;20241;-79
2021/09/01 04:16:22;;;;;;;16.40;10.40;;;;;;;;;;5054114;28;20215;-78
2021/09/01 04:18:50;;;;;;;14.93;10.10;;;;;;;;;;5036696;28;20204;-79
2021/09/01 04:21:17;;;;;;;13.10;11.23;;;;;;;;;;5054320;28;20286;-78
2021/09/01 04:23:43;;;;;;;12.07;10.10;;;;;;;;;;5054084;28;20207;-81
2021/09/01 04:26:10;;;;;;;13.47;10.57;;;;;;;;;;5054306;28;20246;-79
2021/09/01 04:28:37;;;;;;;12.27;10.50;;;;;;;;;;5046347;28;20231;-80
2021/09/01 04:31:03;;;;;;;11.67;10.47;;;;;;;;;;5054540;28;20210;-78
2021/09/01 04:33:31;;;;;;;14.77;10.87;;;;;;;;;;5054611;28;20239;-78
2021/09/01 04:35:59;;;;;;;11.90;10.70;;;;;;;;;;5054454;28;20238;-79
2021/09/01 04:38:26;;;;;;;11.67;10.47;;;;;;;;;;5052324;28;20229;-79
2021/09/01 04:40:53;;;;;;;11.80;10.53;;;;;;;;;;5054472;28;20255;-78
2021/09/01 04:43:19;;;;;;;12.40;10.83;;;;;;;;;;5052243;28;20237;-79
2021/09/01 04:45:46;;;;;;;12.07;10.87;;;;;;;;;;5052224;28;20200;-78
2021/09/01 04:48:13;;;;;;;15.97;10.53;;;;;;;;;;5054068;28;20238;-78
2021/09/01 04:50:39;;;;;;;11.73;10.50;;;;;;;;;;5053923;28;20287;-78
2021/09/01 04:53:07;;;;;;;19.43;12.03;;;;;;;;;;5052541;28;20691;-78
2021/09/01 04:55:34;;;;;;;13.50;10.67;;;;;;;;;;5053947;28;20265;-78
2021/09/01 04:58:01;;;;;;;11.97;10.27;;;;;;;;;;5054101;28;20245;-78
2021/09/01 05:00:27;;;;;;;13.47;10.47;;;;;;;;;;5053713;28;20668;-78
2021/09/01 05:02:54;;;;;;;13.40;10.50;;;;;;;;;;5053768;28;20255;-77
2021/09/01 05:05:21;;;;;;;13.70;11.23;;;;;;;;;;5053842;28;20175;-79
2021/09/01 05:07:47;;;;;;;13.50;10.77;;;;;;;;;;5052997;28;20211;-78
2021/09/01 05:10:15;;;;;;;12.10;10.60;;;;;;;;;;5053796;28;20239;-77
2021/09/01 05:12:44;;;;;;;15.97;10.53;;;;;;;;;;5053149;28;20254;-77
2021/09/01 05:15:12;;;;;;;13.00;10.77;;;;;;;;;;5052141;28;20245;-77
2021/09/01 05:17:38;;;;;;;12.37;10.03;;;;;;;;;;5053550;28;20236;-78
2021/09/01 05:20:05;;;;;;;11.97;10.23;;;;;;;;;;5053819;28;20540;-77
2021/09/01 05:22:32;;;;;;;11.47;10.37;;;;;;;;;;5053012;28;20259;-78
2021/09/01 05:25:02;;;;;;;11.47;10.27;;;;;;;;;;5053078;28;20227;-78
2021/09/01 05:27:32;;;;;;;13.73;10.60;;;;;;;;;;5048162;28;20251;-78
2021/09/01 05:29:59;;;;;;;14.83;10.13;;;;;;;;;;5033289;28;20240;-78
2021/09/01 05:32:29;;;;;;;13.43;10.97;;;;;;;;;;5033302;28;20594;-77
2021/09/01 05:34:56;;;;;;;12.40;9.93;;;;;;;;;;5034021;28;20231;-77
2021/09/01 05:37:24;;;;;;;11.90;10.60;;;;;;;;;;5034194;28;20245;-76
2021/09/01 05:39:53;;;;;;;11.90;9.77;;;;;;;;;;5052515;28;20211;-77
2021/09/01 05:42:20;;;;;;;13.30;10.10;;;;;;;;;;5051713;28;20269;-76
2021/09/01 05:44:49;;;;;;;11.30;9.97;;;;;;;;;;5051763;28;20238;-77
2021/09/01 05:47:16;;;;;;;11.90;10.33;;;;;;;;;;5034482;28;20195;-77
2021/09/01 05:49:43;;;;;;;11.97;10.07;;;;;;;;;;5052081;28;20628;-77
2021/09/01 05:52:10;;;;;;;15.03;10.53;;;;;;;;;;5052349;28;20229;-77
2021/09/01 05:54:41;;;;;;;17.17;10.60;;;;;;;;;;5052215;28;20238;-76
2021/09/01 05:57:09;;;;;;;11.80;9.63;;;;;;;;;;5052576;28;20214;-77
2021/09/01 05:59:48;;;;;;;11.07;9.83;;;;;;;;;;5052349;28;20591;-76
2021/09/01 06:02:19;;;;;;;12.10;10.77;;;;;;;;;;5051836;28;20643;-77
2021/09/01 06:04:46;;;;;;;12.47;9.97;;;;;;;;;;5034218;28;20211;-76
2021/09/01 06:07:13;;;;;;;12.53;9.37;;;;;;;;;;5052386;28;20207;-77
2021/09/01 06:09:41;;;;;;;13.73;10.13;;;;;;;;;;5051852;28;20325;-76
2021/09/01 06:12:08;;;;;;;11.40;9.70;;;;;;;;;;5034103;28;20230;-76
2021/09/01 06:14:36;;;;;;;10.30;9.27;;;;;;;;;;5034390;28;20179;-77
2021/09/01 06:17:04;;;;;;;10.63;9.53;;;;;;;;;;5034179;28;20286;-76
2021/09/01 06:19:34;;;;;;;11.53;9.80;;;;;;;;;;5034207;28;20203;-76
2021/09/01 06:22:00;;;;;;;10.23;9.23;;;;;;;;;;5052007;28;20231;-76
2021/09/01 06:24:27;;;;;;;11.43;9.60;;;;;;;;;;5033800;28;20294;-77
2021/09/01 06:26:53;;;;;;;11.27;10.07;;;;;;;;;;5052178;28;20203;-75
2021/09/01 06:29:20;;;;;;;10.50;9.50;;;;;;;;;;5050932;28;20734;-76
2021/09/01 06:31:47;;;;;;;12.23;8.90;;;;;;;;;;5033644;28;20231;-76
2021/09/01 06:34:14;;;;;;;11.30;9.50;;;;;;;;;;5050869;28;20246;-77
2021/09/01 06:36:44;;;;;;;10.73;9.50;;;;;;;;;;5033815;28;20192;-76
2021/09/01 06:39:11;;;;;;;10.93;8.80;;;;;;;;;;5051714;28;20221;-76
2021/09/01 06:41:38;;;;;;;13.83;9.27;;;;;;;;;;5051280;28;20211;-75
2021/09/01 06:44:05;;;;;;;11.83;9.23;;;;;;;;;;5051338;28;20239;-75
2021/09/01 06:46:32;;;;;;;9.80;8.80;;;;;;;;;;5051664;28;20254;-76
2021/09/01 06:48:58;;;;;;;9.47;8.47;;;;;;;;;;5051381;28;20234;-75
2021/09/01 06:51:25;;;;;;;11.97;9.00;;;;;;;;;;5051563;28;20627;-76
2021/09/01 06:53:53;;;;;;;10.03;8.87;;;;;;;;;;5051711;28;20671;-77
2021/09/01 06:56:20;;;;;;;9.80;8.00;;;;;;;;;;5051683;28;20608;-76
2021/09/01 06:58:47;;;;;;;9.37;8.33;;;;;;;;;;5051670;28;20211;-76
2021/09/01 07:01:14;;;;;;;9.77;8.37;;;;;;;;;;5051300;28;20235;-76
2021/09/01 07:03:40;;;;;;;16.93;8.43;;;;;;;;;;5051030;28;20259;-77
2021/09/01 07:06:07;;;;;;;8.97;8.17;;;;;;;;;;5051528;28;20176;-76
2021/09/01 07:08:33;;;;;;;11.20;8.43;;;;;;;;;;5033680;28;20686;-77
2021/09/01 07:11:01;;;;;;;11.13;8.73;;;;;;;;;;5051417;28;20250;-77
2021/09/01 07:13:28;;;;;;;11.73;8.37;;;;;;;;;;5051322;28;20235;-77
2021/09/01 07:15:55;;;;;;;9.67;8.23;;;;;;;;;;5051070;28;20245;-77
2021/09/01 07:18:23;;;;;;;9.10;8.20;;;;;;;;;;5051208;28;20199;-75
2021/09/01 07:20:50;;;;;;;11.17;8.33;;;;;;;;;;5051487;28;20227;-76
2021/09/01 07:23:17;;;;;;;11.20;8.30;;;;;;;;;;5050807;28;20263;-77
2021/09/01 07:25:43;;;;;;;10.33;8.27;;;;;;;;;;5051396;28;20231;-75
2021/09/01 07:28:11;;;;;;;9.17;7.30;;;;;;;;;;5050981;28;20242;-77
2021/09/01 07:30:38;;;;;;;9.70;7.50;;;;;;;;;;5033680;28;20212;-76
2021/09/01 07:33:04;;;;;;;8.87;7.33;;;;;;;;;;5055027;28;20238;-76
2021/09/01 07:35:31;;;;;;;9.40;7.50;;;;;;;;;;5054802;28;20231;-76
2021/09/01 07:37:58;;;;;;;9.23;7.50;;;;;;;;;;5055264;28;20215;-76
2021/09/01 07:40:25;;;;;;;7.97;7.17;;;;;;;;;;5055610;28;20211;-76
2021/09/01 07:42:51;;;;;;;8.73;6.70;;;;;;;;;;5054726;28;20266;-76
2021/09/01 07:45:20;;;;;;;7.70;6.63;;;;;;;;;;5055456;28;20230;-76
2021/09/01 07:47:48;;;;;;;8.03;7.17;;;;;;;;;;5054636;28;20233;-77
2021/09/01 07:50:17;;;;;;;8.63;7.53;;;;;;;;;;5037500;28;20588;-76
2021/09/01 07:52:45;;;;;;;9.10;7.00;;;;;;;;;;5037453;28;20741;-76
2021/09/01 07:55:12;;;;;;;8.30;7.37;;;;;;;;;;5036924;28;20237;-76
2021/09/01 07:57:39;;;;;;;8.20;6.77;;;;;;;;;;5055224;28;20237;-76
2021/09/01 08:00:07;;;;;;;12.17;7.73;;;;;;;;;;5055014;28;20235;-76
2021/09/01 08:02:36;;;;;;;9.60;7.73;;;;;;;;;;5054165;28;20266;-76
2021/09/01 08:05:03;;;;;;;8.10;7.30;;;;;;;;;;5055124;28;20622;-76
2021/09/01 08:07:30;;;;;;;8.10;7.20;;;;;;;;;;5055145;28;20212;-77
2021/09/01 08:09:57;;;;;;;8.40;7.57;;;;;;;;;;5036630;28;20249;-76
2021/09/01 08:12:23;;;;;;;8.63;7.07;;;;;;;;;;5036643;28;20224;-76
2021/09/01 08:14:50;;;;;;;11.53;8.17;;;;;;;;;;5054165;28;20245;-77
2021/09/01 08:17:17;;;;;;;9.80;7.80;;;;;;;;;;5054656;28;20238;-77
2021/09/01 08:19:46;;;;;;;10.30;8.07;;;;;;;;;;5054904;28;20211;-76
2021/09/01 08:22:13;;;;;;;10.37;8.50;;;;;;;;;;5054434;28;20250;-77
2021/09/01 08:24:40;;;;;;;13.37;8.23;;;;;;;;;;5036837;28;20289;-76
2021/09/01 08:27:07;;;;;;;10.87;8.13;;;;;;;;;;5036127;28;20235;-76
2021/09/01 08:29:33;;;;;;;9.23;7.87;;;;;;;;;;5054824;28;20238;-76
2021/09/01 08:32:00;;;;;;;11.70;8.07;;;;;;;;;;5054451;28;20211;-77
2021/09/01 08:34:27;;;;;;;9.00;8.07;;;;;;;;;;5035518;28;20695;-76
2021/09/01 08:36:56;;;;;;;8.97;7.87;;;;;;;;;;5054099;28;20207;-76
2021/09/01 08:39:22;;;;;;;10.57;8.40;;;;;;;;;;5053929;28;20265;-76
2021/09/01 08:41:49;;;;;;;11.87;8.20;;;;;;;;;;5035918;28;20253;-76
2021/09/01 08:44:16;;;;;;;8.50;7.60;;;;;;;;;;5052537;28;20257;-77
2021/09/01 08:46:44;;;;;;;12.17;7.87;;;;;;;;;;5054200;28;20242;-76
2021/09/01 08:49:12;;;;;;;8.80;7.90;;;;;;;;;;5036266;28;20203;-76
2021/09/01 08:51:39;;;;;;;9.30;8.30;;;;;;;;;;5054105;28;20219;-77
2021/09/01 08:54:07;;;;;;;10.77;8.70;;;;;;;;;;5053334;28;20588;-77
2021/09/01 08:56:34;;;;;;;12.17;8.23;;;;;;;;;;5036123;28;20203;-77
2021/09/01 08:59:01;;;;;;;9.97;8.13;;;;;;;;;;5053632;28;20235;-77
2021/09/01 09:01:40;;;;;;;14.67;8.30;;;;;;;;;;5053755;28;20231;-77
2021/09/01 09:04:08;;;;;;;9.97;8.00;;;;;;;;;;5054031;28;20691;-76
2021/09/01 09:06:44;;;;;;;10.97;8.50;;;;;;;;;;5054027;28;20210;-77
2021/09/01 09:09:13;;;;;;;11.93;7.60;;;;;;;;;;5036128;28;20563;-77
2021/09/01 09:11:40;;;;;;;10.03;7.67;;;;;;;;;;5053345;28;20242;-78
2021/09/01 09:14:20;;;;;;;13.17;8.43;;;;;;;;;;5053357;28;20230;-77
2021/09/01 09:16:49;;;;;;;9.27;8.13;;;;;;;;;;5053878;28;20242;-78
2021/09/01 09:19:19;;;;;;;8.63;7.80;;;;;;;;;;5035970;28;20223;-79
2021/09/01 09:21:47;;;;;;;9.50;8.03;;;;;;;;;;5035769;28;20200;-78
2021/09/01 09:24:22;;;;;;;10.03;7.77;;;;;;;;;;5053465;28;20723;-78
2021/09/01 09:26:49;;;;;;;13.70;8.07;;;;;;;;;;5053623;28;20187;-77
2021/09/01 09:29:16;;;;;;;12.40;8.17;;;;;;;;;;5052884;28;20259;-78
2021/09/01 09:31:44;;;;;;;9.80;8.63;;;;;;;;;;5053647;28;20175;-78
2021/09/01 09:34:11;;;;;;;10.40;8.83;;;;;;;;;;5053394;28;20231;-79
2021/09/01 09:36:39;;;;;;;15.40;8.33;;;;;;;;;;5052897;28;20214;-80
2021/09/01 09:39:06;;;;;;;10.97;8.87;;;;;;;;;;5053525;28;20234;-78
2021/09/01 09:41:34;;;;;;;9.83;7.77;;;;;;;;;;5035450;28;20253;-78
2021/09/01 09:44:01;;;;;;;9.23;8.30;;;;;;;;;;5053209;28;20255;-78
2021/09/01 09:46:28;;;;;;;10.23;8.20;;;;;;;;;;5053500;28;20239;-78
2021/09/01 09:49:04;;;;;;;9.67;7.80;;;;;;;;;;5035436;28;20227;-77
2021/09/01 09:51:37;;;;;;;10.70;8.40;;;;;;;;;;5053331;28;20214;-79
2021/09/01 09:54:14;;;;;;;9.83;8.23;;;;;;;;;;5052548;28;20207;-78
2021/09/01 09:56:42;;;;;;;8.60;7.53;;;;;;;;;;5035289;28;20265;-78
2021/09/01 09:59:14;;;;;;;11.13;8.17;;;;;;;;;;5035084;28;20637;-79
2021/09/01 10:01:41;;;;;;;9.83;7.80;;;;;;;;;;5035283;28;20203;-78
2021/09/01 10:04:08;;;;;;;8.63;6.77;;;;;;;;;;5053015;28;20360;-79
2021/09/01 10:06:35;;;;;;;10.90;7.70;;;;;;;;;;5034399;28;20740;-78
2021/09/01 10:09:03;;;;;;;14.67;7.87;;;;;;;;;;5052533;28;20211;-79
2021/09/01 10:11:30;;;;;;;9.13;6.77;;;;;;;;;;5034997;28;20203;-78
2021/09/01 10:13:58;;;;;;;14.17;7.57;;;;;;;;;;5034671;28;20203;-78
2021/09/01 10:16:30;;;;;;;8.10;6.60;;;;;;;;;;5052256;28;20231;-79
2021/09/01 10:18:59;;;;;;;10.80;7.13;;;;;;;;;;5052965;28;20218;-78
2021/09/01 10:21:26;;;;;;;8.65;6.25;;;;;;;;;;5052384;28;20251;-78
2021/09/01 10:23:54;;;;;;;8.73;7.20;;;;;;;;;;5052162;28;20284;-79
2021/09/01 10:26:22;;;;;;;7.90;6.32;;;;;;;;;;5034402;28;20283;-79
2021/09/01 10:28:49;;;;;;;9.60;6.40;;;;;;;;;;5034232;28;20227;-78
2021/09/01 10:31:20;;;;;;;8.18;6.57;;;;;;;;;;5052616;28;20213;-79
2021/09/01 10:33:48;;;;;;;9.77;5.55;;;;;;;;;;5051955;28;20246;-77
2021/09/01 10:36:33;;;;;;;8.00;5.55;;;;;;;;;;5048930;28;20238;-77
2021/09/01 10:39:14;;;;;;;8.88;6.50;;;;;;;;;;5014686;28;20208;-78
2021/09/01 10:41:41;;;;;;;10.57;6.45;;;;;;;;;;5014529;28;20184;-78
2021/09/01 10:44:09;;;;;;;16.85;6.80;;;;;;;;;;5014998;28;20596;-78
2021/09/01 10:46:51;;;;;;;8.60;6.07;;;;;;;;;;5014652;28;20235;-79
2021/09/01 10:49:19;;;;;;;9.68;6.18;;;;;;;;;;5031671;28;20270;-79
2021/09/01 10:51:48;;;;;;;9.95;6.85;;;;;;;;;;5041392;28;20258;-78
2021/09/01 10:54:31;;;;;;;9.00;5.90;;;;;;;;;;5033914;28;20655;-80
2021/09/01 10:57:00;;;;;;;8.68;6.05;;;;;;;;;;5047136;28;20249;-79
2021/09/01 10:59:28;;;;;;;11.82;6.35;;;;;;;;;;5051667;28;20184;-79
2021/09/01 11:02:12;;;;;;;9.70;6.30;;;;;;;;;;5051997;28;20636;-79
2021/09/01 11:04:47;;;;;;;9.52;5.82;;;;;;;;;;5034534;28;20257;-77
2021/09/01 11:07:19;;;;;;;8.95;6.20;;;;;;;;;;5033316;28;20225;-80
2021/09/01 11:09:50;;;;;;;6.78;5.68;;;;;;;;;;5052301;28;20180;-80
2021/09/01 11:12:18;;;;;;;8.40;6.45;;;;;;;;;;5034014;28;20226;-80
2021/09/01 11:14:47;;;;;;;11.15;5.97;;;;;;;;;;5017697;28;20227;-80
2021/09/01 11:17:18;;;;;;;6.53;5.80;;;;;;;;;;5034238;28;20550;-80
2021/09/01 11:19:47;;;;;;;5.68;5.10;;;;;;;;;;5052192;28;20250;-79
2021/09/01 11:22:15;;;;;;;7.35;6.00;;;;;;;;;;5033510;28;20732;-81
2021/09/01 11:24:42;;;;;;;6.60;5.57;;;;;;;;;;5051758;28;20258;-80
2021/09/01 11:27:10;;;;;;;6.75;5.30;;;;;;;;;;5051908;28;20216;-81
2021/09/01 11:29:37;;;;;;;6.18;5.20;;;;;;;;;;5033880;28;20284;-81
2021/09/01 11:32:04;;;;;;;11.27;5.15;;;;;;;;;;5052627;28;20210;-79
2021/09/01 11:34:31;;;;;;;7.70;5.30;;;;;;;;;;5052417;28;20172;-79
2021/09/01 11:36:59;;;;;;;12.35;5.03;;;;;;;;;;5051732;28;20241;-80
2021/09/01 11:39:26;;;;;;;6.75;4.97;;;;;;;;;;5052421;28;20644;-83
2021/09/01 11:42:00;;;;;;;6.93;4.95;;;;;;;;;;5051628;28;20184;-80
2021/09/01 11:44:27;;;;;;;9.07;4.93;;;;;;;;;;5051379;28;20756;-80
2021/09/01 11:46:54;;;;;;;5.90;5.00;;;;;;;;;;5051922;28;20211;-81
2021/09/01 11:49:21;;;;;;;6.18;4.82;;;;;;;;;;5034272;28;20191;-79
2021/09/01 11:51:49;;;;;;;7.00;4.90;;;;;;;;;;5051488;28;20265;-77
2021/09/01 11:54:20;;;;;;;5.20;4.47;;;;;;;;;;5033352;28;20737;-78
2021/09/01 11:56:47;;;;;;;10.20;5.07;;;;;;;;;;5051259;28;20604;-79
2021/09/01 11:59:14;;;;;;;5.50;4.60;;;;;;;;;;5033281;28;20184;-80
2021/09/01 12:01:45;;;;;;;6.35;5.28;;;;;;;;;;5050787;28;20206;-77
2021/09/01 12:04:13;;;;;;;8.57;4.82;;;;;;;;;;5051518;28;20227;-81
2021/09/01 12:06:40;;;;;;;8.23;4.88;;;;;;;;;;5051611;28;20226;-80
2021/09/01 12:09:12;;;;;;;6.38;4.63;;;;;;;;;;5051498;28;20231;-79
2021/09/01 12:11:40;;;;;;;5.03;4.55;;;;;;;;;;5033383;28;20737;-79
2021/09/01 12:14:08;;;;;;;8.73;4.47;;;;;;;;;;5034095;28;20222;-82
2021/09/01 12:16:35;;;;;;;8.25;5.38;;;;;;;;;;5051717;28;20239;-81
2021/09/01 12:19:08;;;;;;;6.78;4.65;;;;;;;;;;5037197;28;20203;-81
2021/09/01 12:21:48;;;;;;;7.30;4.30;;;;;;;;;;5055404;28;20704;-81
2021/09/01 12:24:17;;;;;;;7.78;4.70;;;;;;;;;;5055076;28;20238;-82
2021/09/01 12:26:49;;;;;;;5.95;4.13;;;;;;;;;;5055046;28;20210;-82
2021/09/01 12:29:23;;;;;;;5.22;3.95;;;;;;;;;;5037331;28;20238;-82
2021/09/01 12:31:53;;;;;;;8.82;4.70;;;;;;;;;;5054857;28;20663;-84
2021/09/01 12:34:24;;;;;;;5.35;4.28;;;;;;;;;;5038173;28;20245;-83
2021/09/01 12:36:57;;;;;;;6.78;4.35;;;;;;;;;;5037814;28;20199;-82
2021/09/01 12:39:23;;;;;;;4.90;4.28;;;;;;;;;;5055333;28;20187;-83
2021/09/01 12:41:51;;;;;;;6.22;4.32;;;;;;;;;;5036861;28;20203;-82
2021/09/01 12:44:20;;;;;;;5.90;4.28;;;;;;;;;;5037012;28;20255;-82
2021/09/01 12:46:47;;;;;;;6.13;4.35;;;;;;;;;;5037415;28;20240;-82
2021/09/01 12:49:26;;;;;;;5.38;3.97;;;;;;;;;;5037178;28;20245;-83
2021/09/01 12:51:55;;;;;;;5.60;4.25;;;;;;;;;;5036855;28;20203;-82
2021/09/01 12:54:23;;;;;;;8.43;4.05;;;;;;;;;;5054219;28;20242;-81
2021/09/01 12:56:52;;;;;;;10.80;4.63;;;;;;;;;;5036415;28;20187;-81
2021/09/01 12:59:20;;;;;;;4.30;3.85;;;;;;;;;;5036049;28;20203;-81
2021/09/01 13:01:47;;;;;;;4.38;3.78;;;;;;;;;;5054177;28;20235;-81
2021/09/01 13:04:14;;;;;;;5.10;3.97;;;;;;;;;;5054152;28;20265;-81
2021/09/01 13:06:42;;;;;;;9.00;4.18;;;;;;;;;;5054337;28;20204;-82
2021/09/01 13:09:13;;;;;;;7.53;4.38;;;;;;;;;;5054283;28;20214;-79
2021/09/01 13:11:39;;;;;;;8.55;4.22;;;;;;;;;;5053780;28;20722;-83
2021/09/01 13:14:06;;;;;;;4.82;4.05;;;;;;;;;;5053916;28;20640;-81
2021/09/01 13:16:34;;;;;;;5.03;3.85;;;;;;;;;;5054111;28;20624;-80
2021/09/01 13:19:01;;;;;;;5.13;3.95;;;;;;;;;;5036193;28;20196;-80
2021/09/01 13:21:28;;;;;;;3.80;3.38;;;;;;;;;;5053932;28;20250;-80
2021/09/01 13:23:54;;;;;;;4.45;3.65;;;;;;;;;;5036193;28;20548;-79
2021/09/01 13:26:21;;;;;;;6.65;4.10;;;;;;;;;;5035903;28;20266;-80
2021/09/01 13:28:47;;;;;;;4.95;3.97;;;;;;;;;;5031785;28;20263;-79
2021/09/01 13:31:14;;;;;;;5.50;3.78;;;;;;;;;;5033924;28;20195;-80
2021/09/01 13:33:42;;;;;;;6.70;4.05;;;;;;;;;;5032237;28;20255;-79
2021/09/01 13:36:09;;;;;;;5.80;4.55;;;;;;;;;;5033270;28;20240;-78
2021/09/01 13:38:36;;;;;;;4.43;4.03;;;;;;;;;;5032027;28;20242;-79
2021/09/01 13:41:04;;;;;;;4.43;4.00;;;;;;;;;;5032014;28;20200;-78
2021/09/01 13:43:31;;;;;;;5.00;4.05;;;;;;;;;;5033356;28;20608;-79
2021/09/01 13:45:58;;;;;;;4.95;3.58;;;;;;;;;;5031536;28;20235;-78
2021/09/01 13:48:24;;;;;;;4.35;3.50;;;;;;;;;;5032909;28;20188;-79
2021/09/01 13:50:52;;;;;;;9.48;3.75;;;;;;;;;;5031571;28;20638;-80
2021/09/01 13:53:20;;;;;;;6.32;3.63;;;;;;;;;;5033076;28;20825;-78
2021/09/01 13:55:46;;;;;;;8.85;3.60;;;;;;;;;;5031886;28;20220;-78
2021/09/01 13:58:13;;;;;;;6.13;4.10;;;;;;;;;;5031525;28;20209;-79
2021/09/01 14:00:40;;;;;;;5.28;3.92;;;;;;;;;;5032788;28;20334;-80
2021/09/01 14:03:11;;;;;;;4.30;3.78;;;;;;;;;;5031191;28;20254;-80
2021/09/01 14:05:39;;;;;;;5.30;3.80;;;;;;;;;;5030272;28;20710;-80
2021/09/01 14:08:08;;;;;;;5.15;3.72;;;;;;;;;;5032928;28;20247;-81
2021/09/01 14:10:35;;;;;;;4.60;3.92;;;;;;;;;;5031146;28;20205;-79
2021/09/01 14:13:01;;;;;;;4.80;3.70;;;;;;;;;;5032790;28;20239;-80
2021/09/01 14:15:28;;;;;;;5.60;3.90;;;;;;;;;;5032490;28;20205;-80
2021/09/01 14:17:55;;;;;;;4.57;3.53;;;;;;;;;;5032645;28;20176;-80
2021/09/01 14:20:22;;;;;;;4.82;3.67;;;;;;;;;;5031289;28;20190;-79
2021/09/01 14:22:49;;;;;;;8.55;4.10;;;;;;;;;;5030968;28;20212;-79
2021/09/01 14:25:18;;;;;;;3.88;3.47;;;;;;;;;;5032265;28;20251;-79
2021/09/01 14:27:45;;;;;;;6.63;4.00;;;;;;;;;;5030766;28;20266;-79
2021/09/01 14:30:13;;;;;;;4.25;3.80;;;;;;;;;;5030641;28;20250;-80
2021/09/01 14:32:42;;;;;;;5.05;3.78;;;;;;;;;;5030983;28;20603;-80
2021/09/01 14:35:10;;;;;;;7.53;3.60;;;;;;;;;;5030816;28;20185;-77